createdAt,value
2023-01-31T00:00:36.536Z,62.10
2023-01-31T00:03:06.275Z,62.20
2023-01-31T00:05:35.085Z,62.00
2023-01-31T00:08:03.425Z,62.20
2023-01-31T00:10:31.877Z,62.00
2023-01-31T00:13:00.133Z,61.90
2023-01-31T00:15:28.467Z,62.00
2023-01-31T00:17:57.118Z,62.00
2023-01-31T00:20:26.731Z,61.80
2023-01-31T00:22:54.990Z,62.10
2023-01-31T00:25:23.861Z,61.80
2023-01-31T00:27:52.103Z,61.90
2023-01-31T00:30:20.507Z,61.90
2023-01-31T00:32:48.828Z,62.00
2023-01-31T00:35:18.578Z,62.00
2023-01-31T00:37:48.344Z,62.00
2023-01-31T00:40:16.859Z,62.00
2023-01-31T00:42:47.341Z,62.00
2023-01-31T00:45:16.307Z,62.30
2023-01-31T00:47:44.760Z,62.10
2023-01-31T00:50:16.633Z,61.90
2023-01-31T00:52:45.154Z,61.90
2023-01-31T00:55:14.899Z,62.30
2023-01-31T00:57:43.222Z,62.20
2023-01-31T01:00:13.698Z,62.90
2023-01-31T01:02:42.103Z,62.00
2023-01-31T01:05:10.866Z,62.00
2023-01-31T01:07:39.278Z,62.00
2023-01-31T01:10:09.024Z,62.00
2023-01-31T01:12:38.939Z,62.00
2023-01-31T01:15:08.770Z,62.00
2023-01-31T01:17:37.179Z,62.10
2023-01-31T01:20:08.655Z,62.00
2023-01-31T01:22:40.290Z,62.30
2023-01-31T01:25:10.725Z,62.00
2023-01-31T01:27:40.395Z,62.20
2023-01-31T01:30:12.054Z,62.10
2023-01-31T01:32:40.343Z,62.10
2023-01-31T01:35:10.139Z,62.00
2023-01-31T01:37:38.475Z,61.90
2023-01-31T01:40:09.180Z,62.00
2023-01-31T01:42:37.904Z,62.00
2023-01-31T01:45:18.213Z,62.00
2023-01-31T01:47:53.229Z,62.00
2023-01-31T01:50:27.536Z,62.10
2023-01-31T01:53:00.919Z,62.00
2023-01-31T01:55:35.210Z,62.00
2023-01-31T01:58:10.319Z,62.00
2023-01-31T02:00:40.180Z,62.00
2023-01-31T02:03:09.679Z,62.20
2023-01-31T02:05:42.912Z,62.20
2023-01-31T02:08:13.372Z,62.30
2023-01-31T02:10:49.560Z,62.30
2023-01-31T02:13:18.606Z,62.30
2023-01-31T02:15:49.339Z,62.40
2023-01-31T02:18:20.821Z,62.20
2023-01-31T02:21:35.858Z,62.20
2023-01-31T02:24:59.358Z,62.20
2023-01-31T02:27:49.990Z,62.40
2023-01-31T02:31:02.983Z,62.50
2023-01-31T02:33:40.518Z,62.30
2023-01-31T02:36:22.244Z,62.30
2023-01-31T02:39:04.652Z,62.20
2023-01-31T02:41:42.405Z,62.20
2023-01-31T02:44:40.068Z,62.10
2023-01-31T02:47:19.524Z,62.20
2023-01-31T02:49:56.695Z,62.10
2023-01-31T02:52:33.975Z,62.10
2023-01-31T02:55:31.669Z,62.20
2023-01-31T02:58:03.581Z,62.10
2023-01-31T03:00:35.816Z,62.10
2023-01-31T03:03:07.916Z,62.20
2023-01-31T03:05:37.598Z,62.20
2023-01-31T03:08:08.134Z,62.20
2023-01-31T03:10:58.025Z,62.20
2023-01-31T03:13:42.979Z,62.20
2023-01-31T03:16:41.311Z,62.30
2023-01-31T03:19:17.596Z,62.40
2023-01-31T03:21:53.083Z,62.30
2023-01-31T03:24:26.472Z,62.30
2023-01-31T03:26:58.826Z,62.30
2023-01-31T03:29:30.036Z,62.40
2023-01-31T03:32:04.963Z,62.40
2023-01-31T03:34:34.879Z,62.40
2023-01-31T03:37:13.909Z,62.30
2023-01-31T03:40:01.424Z,62.40
2023-01-31T03:42:41.222Z,62.30
2023-01-31T03:45:15.847Z,62.30
2023-01-31T03:47:48.082Z,62.30
2023-01-31T03:50:22.614Z,62.20
2023-01-31T03:52:58.651Z,62.20
2023-01-31T03:55:34.700Z,62.20
2023-01-31T03:58:06.566Z,62.20
2023-01-31T04:00:38.805Z,62.90
2023-01-31T04:03:16.550Z,62.10
2023-01-31T04:05:46.534Z,62.10
2023-01-31T04:08:16.653Z,62.00
2023-01-31T04:10:51.131Z,62.00
2023-01-31T04:13:19.476Z,62.10
2023-01-31T04:15:47.808Z,61.90
2023-01-31T04:18:16.180Z,61.90
2023-01-31T04:20:44.565Z,61.90
2023-01-31T04:23:12.883Z,61.90
2023-01-31T04:25:42.722Z,61.80
2023-01-31T04:28:11.232Z,61.90
2023-01-31T04:30:39.653Z,61.80
2023-01-31T04:33:07.970Z,61.80
2023-01-31T04:35:36.605Z,61.80
2023-01-31T04:38:04.886Z,61.80
2023-01-31T04:40:33.753Z,61.80
2023-01-31T04:43:03.472Z,62.10
2023-01-31T04:45:31.971Z,61.90
2023-01-31T04:48:00.367Z,61.80
2023-01-31T04:50:28.669Z,61.90
2023-01-31T04:52:57.091Z,61.90
2023-01-31T04:55:25.969Z,61.90
2023-01-31T04:57:54.283Z,61.90
2023-01-31T05:00:24.289Z,61.80
2023-01-31T05:02:53.060Z,61.80
2023-01-31T05:05:21.853Z,61.80
2023-01-31T05:07:50.292Z,61.90
2023-01-31T05:10:19.266Z,61.80
2023-01-31T05:12:48.322Z,61.80
2023-01-31T05:15:17.452Z,61.90
2023-01-31T05:17:53.273Z,61.80
2023-01-31T05:20:22.094Z,61.80
2023-01-31T05:22:50.744Z,61.80
2023-01-31T05:25:19.167Z,61.70
2023-01-31T05:27:47.623Z,61.70
2023-01-31T05:30:16.312Z,61.80
2023-01-31T05:32:46.853Z,61.70
2023-01-31T05:35:15.370Z,61.70
2023-01-31T05:37:44.745Z,61.70
2023-01-31T05:40:15.718Z,61.70
2023-01-31T05:42:44.651Z,61.70
2023-01-31T05:45:16.743Z,61.80
2023-01-31T05:47:47.532Z,61.70
2023-01-31T05:50:16.025Z,61.80
2023-01-31T05:52:44.309Z,61.80
2023-01-31T05:55:12.667Z,61.70
2023-01-31T05:57:40.928Z,61.70
2023-01-31T06:00:11.092Z,61.60
2023-01-31T06:02:41.980Z,61.60
2023-01-31T06:05:12.724Z,61.60
2023-01-31T06:07:41.510Z,61.70
2023-01-31T06:10:13.643Z,61.60
2023-01-31T06:12:42.080Z,61.60
2023-01-31T06:15:11.545Z,61.60
2023-01-31T06:17:39.821Z,61.60
2023-01-31T06:20:09.584Z,61.70
2023-01-31T06:22:39.343Z,61.60
2023-01-31T06:25:08.922Z,61.40
2023-01-31T06:27:37.745Z,61.50
2023-01-31T06:30:07.090Z,61.40
2023-01-31T06:32:35.409Z,61.50
2023-01-31T06:35:04.139Z,62.20
2023-01-31T06:37:32.927Z,61.40
2023-01-31T06:40:02.622Z,61.40
2023-01-31T06:42:30.945Z,61.30
2023-01-31T06:44:59.321Z,61.40
2023-01-31T06:47:27.631Z,61.30
2023-01-31T06:49:55.940Z,61.40
2023-01-31T06:52:24.399Z,61.30
2023-01-31T06:54:52.709Z,61.20
2023-01-31T06:57:22.577Z,61.30
2023-01-31T06:59:50.963Z,61.40
2023-01-31T07:02:19.311Z,61.30
2023-01-31T07:04:47.603Z,61.30
2023-01-31T07:07:16.160Z,61.30
2023-01-31T07:09:44.464Z,61.30
2023-01-31T07:12:12.879Z,61.30
2023-01-31T07:14:42.663Z,61.20
2023-01-31T07:17:11.583Z,61.20
2023-01-31T07:19:40.028Z,61.20
2023-01-31T07:22:08.512Z,61.10
2023-01-31T07:24:36.770Z,61.10
2023-01-31T07:27:05.299Z,61.00
2023-01-31T07:29:33.717Z,60.90
2023-01-31T07:32:03.449Z,60.90
2023-01-31T07:34:32.272Z,60.90
2023-01-31T07:37:01.351Z,60.90
2023-01-31T07:39:30.194Z,60.80
2023-01-31T07:41:58.564Z,60.80
2023-01-31T07:44:26.916Z,60.80
2023-01-31T07:46:56.539Z,60.80
2023-01-31T07:49:26.237Z,60.30
2023-01-31T07:51:54.632Z,60.20
2023-01-31T07:54:23.107Z,60.30
2023-01-31T07:56:51.399Z,60.10
2023-01-31T07:59:19.950Z,60.20
2023-01-31T08:02:05.809Z,60.30
2023-01-31T08:04:35.854Z,60.10
2023-01-31T08:07:05.820Z,60.20
2023-01-31T08:09:34.240Z,60.80
2023-01-31T08:12:02.655Z,60.10
2023-01-31T08:14:31.405Z,60.00
2023-01-31T08:16:59.715Z,60.00
2023-01-31T08:19:28.089Z,59.90
2023-01-31T08:21:57.703Z,59.90
2023-01-31T08:24:26.043Z,59.80
2023-01-31T08:26:54.643Z,59.80
2023-01-31T08:29:23.208Z,59.70
2023-01-31T08:31:52.348Z,59.80
2023-01-31T08:34:23.170Z,60.00
2023-01-31T08:36:51.713Z,59.80
2023-01-31T08:39:21.427Z,59.90
2023-01-31T08:41:49.778Z,59.60
2023-01-31T08:44:18.230Z,59.60
2023-01-31T08:46:46.939Z,59.60
2023-01-31T08:49:15.597Z,59.70
2023-01-31T08:51:45.209Z,59.50
2023-01-31T08:54:13.833Z,59.40
2023-01-31T08:56:43.536Z,59.40
2023-01-31T08:59:12.561Z,59.50
2023-01-31T09:01:42.491Z,59.40
2023-01-31T09:04:10.865Z,59.40
2023-01-31T09:06:39.176Z,59.50
2023-01-31T09:09:07.446Z,59.50
2023-01-31T09:11:36.131Z,59.40
2023-01-31T09:14:05.787Z,59.20
2023-01-31T09:16:34.405Z,59.30
2023-01-31T09:19:03.187Z,59.10
2023-01-31T09:21:31.562Z,59.30
2023-01-31T09:24:03.816Z,59.30
2023-01-31T09:26:33.304Z,59.60
2023-01-31T09:29:02.135Z,59.50
2023-01-31T09:31:32.282Z,59.60
2023-01-31T09:34:01.010Z,59.70
2023-01-31T09:36:30.194Z,59.50
2023-01-31T09:38:59.500Z,59.50
2023-01-31T09:41:33.664Z,59.30
2023-01-31T09:44:06.745Z,59.40
2023-01-31T09:46:41.141Z,59.30
2023-01-31T09:49:16.861Z,59.20
2023-01-31T09:51:45.574Z,59.00
2023-01-31T09:54:22.389Z,59.00
2023-01-31T09:57:02.174Z,58.90
2023-01-31T09:59:42.455Z,58.80
2023-01-31T10:02:32.639Z,58.80
2023-01-31T10:05:15.833Z,58.70
2023-01-31T10:07:54.524Z,58.40
2023-01-31T10:10:31.222Z,58.40
2023-01-31T10:13:04.732Z,58.00
2023-01-31T10:15:40.240Z,58.40
2023-01-31T10:18:16.616Z,58.50
2023-01-31T10:20:51.386Z,58.40
2023-01-31T10:23:26.908Z,58.30
2023-01-31T10:26:01.581Z,58.10
2023-01-31T10:28:37.727Z,58.40
2023-01-31T10:31:13.777Z,58.30
2023-01-31T10:33:50.634Z,58.40
2023-01-31T10:36:29.087Z,58.30
2023-01-31T10:39:04.398Z,58.30
2023-01-31T10:41:47.218Z,58.40
2023-01-31T10:44:24.795Z,58.40
2023-01-31T10:46:58.030Z,58.30
2023-01-31T10:49:29.097Z,58.20
2023-01-31T10:52:13.776Z,58.30
2023-01-31T10:54:55.301Z,58.30
2023-01-31T10:57:23.942Z,58.00
2023-01-31T10:59:55.172Z,58.20
2023-01-31T11:02:27.012Z,57.90
2023-01-31T11:04:59.359Z,58.10
2023-01-31T11:07:31.622Z,58.30
2023-01-31T11:09:59.971Z,58.30
2023-01-31T11:12:43.462Z,58.30
2023-01-31T11:15:18.809Z,58.30
2023-01-31T11:17:48.557Z,58.40
2023-01-31T11:20:28.956Z,58.60
2023-01-31T11:22:59.763Z,58.40
2023-01-31T11:25:30.131Z,58.40
2023-01-31T11:28:02.171Z,58.40
2023-01-31T11:30:35.036Z,58.40
2023-01-31T11:33:03.827Z,58.20
2023-01-31T11:35:35.744Z,58.20
2023-01-31T11:38:22.254Z,58.00
2023-01-31T11:40:51.264Z,58.10
2023-01-31T11:43:28.230Z,58.10
2023-01-31T11:45:59.730Z,58.00
2023-01-31T11:48:34.102Z,58.10
2023-01-31T11:51:05.007Z,58.20
2023-01-31T11:53:40.323Z,58.00
2023-01-31T11:56:15.788Z,58.00
2023-01-31T11:58:46.581Z,58.70
2023-01-31T12:01:18.007Z,58.20
2023-01-31T12:04:01.662Z,58.30
2023-01-31T12:06:35.519Z,58.30
2023-01-31T12:09:07.404Z,58.10
2023-01-31T12:11:37.085Z,58.20
2023-01-31T12:14:16.127Z,58.90
2023-01-31T12:16:46.110Z,58.40
2023-01-31T12:19:28.958Z,58.40
2023-01-31T12:22:09.184Z,58.30
2023-01-31T12:24:46.001Z,58.20
2023-01-31T12:27:28.668Z,58.00
2023-01-31T12:30:31.813Z,58.20
2023-01-31T12:33:30.451Z,58.30
2023-01-31T12:36:17.297Z,57.90
2023-01-31T12:39:05.298Z,58.00
2023-01-31T12:41:37.941Z,57.80
2023-01-31T12:44:26.853Z,58.00
2023-01-31T12:47:32.470Z,58.00
2023-01-31T12:50:27.514Z,58.60
2023-01-31T12:53:30.908Z,58.10
2023-01-31T12:56:17.745Z,58.10
2023-01-31T12:59:06.275Z,58.30
2023-01-31T13:01:50.688Z,58.20
2023-01-31T13:04:34.631Z,58.20
2023-01-31T13:07:07.697Z,58.30
2023-01-31T13:09:38.290Z,58.40
2023-01-31T13:12:12.878Z,58.50
2023-01-31T13:14:45.066Z,58.60
2023-01-31T13:17:18.950Z,58.80
2023-01-31T13:19:52.256Z,58.90
2023-01-31T13:22:24.922Z,59.00
2023-01-31T13:25:02.947Z,59.20
2023-01-31T13:27:39.280Z,59.20
2023-01-31T13:30:21.646Z,59.30
2023-01-31T13:32:53.531Z,59.40
2023-01-31T13:35:27.572Z,59.40
2023-01-31T13:38:01.611Z,59.40
2023-01-31T13:40:34.273Z,59.40
2023-01-31T13:43:13.211Z,59.30
2023-01-31T13:45:48.344Z,59.20
2023-01-31T13:48:27.662Z,59.20
2023-01-31T13:51:02.658Z,59.20
2023-01-31T13:53:35.283Z,59.20
2023-01-31T13:56:05.715Z,59.10
2023-01-31T13:58:37.469Z,59.20
2023-01-31T14:01:08.224Z,59.20
2023-01-31T14:04:26.764Z,59.20
2023-01-31T14:07:22.974Z,59.10
2023-01-31T14:10:30.604Z,59.00
2023-01-31T14:13:25.053Z,58.80
2023-01-31T14:15:56.840Z,58.80
2023-01-31T14:18:43.354Z,58.90
2023-01-31T14:21:54.996Z,58.70
2023-01-31T14:25:13.904Z,58.70
2023-01-31T14:27:47.523Z,58.70
2023-01-31T14:30:37.006Z,58.70
2023-01-31T14:33:29.093Z,58.80
2023-01-31T14:36:33.977Z,58.90
2023-01-31T14:39:31.717Z,59.00
2023-01-31T14:43:05.753Z,59.00
2023-01-31T14:46:16.041Z,59.10
2023-01-31T14:49:22.978Z,59.20
2023-01-31T14:52:14.797Z,59.20
2023-01-31T14:55:03.926Z,59.20
2023-01-31T14:57:40.645Z,59.20
2023-01-31T15:00:22.162Z,59.30
2023-01-31T15:02:56.928Z,59.30
2023-01-31T15:05:46.064Z,59.40
2023-01-31T15:08:43.571Z,59.30
2023-01-31T15:11:42.316Z,59.40
2023-01-31T15:14:35.221Z,59.40
2023-01-31T15:17:31.664Z,59.50
2023-01-31T15:20:15.593Z,59.50
2023-01-31T15:22:46.759Z,59.50
2023-01-31T15:25:28.103Z,59.60
2023-01-31T15:27:57.874Z,59.60
2023-01-31T15:30:29.105Z,59.80
2023-01-31T15:33:03.185Z,59.80
2023-01-31T15:35:34.334Z,59.80
2023-01-31T15:38:13.679Z,59.80
2023-01-31T15:40:42.032Z,59.80
2023-01-31T15:43:23.555Z,59.80
2023-01-31T15:45:52.910Z,59.80
2023-01-31T15:48:23.042Z,60.00
2023-01-31T15:51:14.700Z,59.90
2023-01-31T15:53:45.110Z,60.00
2023-01-31T15:56:37.529Z,60.00
2023-01-31T15:59:13.621Z,60.00
2023-01-31T16:01:49.549Z,60.00
2023-01-31T16:04:18.004Z,60.00
2023-01-31T16:06:48.624Z,60.30
2023-01-31T16:09:28.301Z,60.40
2023-01-31T16:11:57.723Z,60.40
2023-01-31T16:14:26.776Z,60.30
2023-01-31T16:16:57.833Z,60.40
2023-01-31T16:19:29.851Z,60.60
2023-01-31T16:21:59.624Z,60.60
2023-01-31T16:24:30.014Z,60.50
2023-01-31T16:27:01.129Z,60.80
2023-01-31T16:29:40.342Z,60.70
2023-01-31T16:32:18.503Z,60.70
2023-01-31T16:34:55.451Z,61.20
2023-01-31T16:37:36.895Z,60.90
2023-01-31T16:40:20.225Z,61.20
2023-01-31T16:42:48.874Z,61.10
2023-01-31T16:45:30.802Z,61.20
2023-01-31T16:48:23.035Z,61.60
2023-01-31T16:50:52.952Z,61.60
2023-01-31T16:53:28.735Z,61.60
2023-01-31T16:56:23.309Z,61.70
2023-01-31T16:58:55.736Z,61.60
2023-01-31T17:01:28.092Z,61.70
2023-01-31T17:04:15.901Z,61.70
2023-01-31T17:06:49.104Z,61.90
2023-01-31T17:09:22.241Z,62.00
2023-01-31T17:11:54.579Z,62.20
2023-01-31T17:14:23.044Z,61.90
2023-01-31T17:16:52.819Z,62.00
2023-01-31T17:19:21.657Z,61.90
2023-01-31T17:21:50.389Z,61.90
2023-01-31T17:24:22.617Z,61.80
2023-01-31T17:26:53.997Z,61.80
2023-01-31T17:29:23.325Z,61.70
2023-01-31T17:31:52.040Z,61.60
2023-01-31T17:34:20.398Z,61.60
2023-01-31T17:36:48.778Z,61.70
2023-01-31T17:39:17.932Z,61.50
2023-01-31T17:41:47.000Z,61.60
2023-01-31T17:44:16.900Z,61.60
2023-01-31T17:46:45.734Z,61.40
2023-01-31T17:49:14.375Z,61.40
2023-01-31T17:51:42.759Z,61.40
2023-01-31T17:54:11.497Z,61.20
2023-01-31T17:56:40.108Z,61.30
2023-01-31T17:59:14.921Z,61.30
2023-01-31T18:01:44.828Z,61.40
2023-01-31T18:04:13.255Z,61.40
2023-01-31T18:06:41.519Z,61.50
2023-01-31T18:09:10.329Z,61.50
2023-01-31T18:11:43.621Z,61.60
2023-01-31T18:14:12.173Z,61.50
2023-01-31T18:16:40.702Z,61.30
2023-01-31T18:19:11.473Z,61.30
2023-01-31T18:21:46.821Z,61.20
2023-01-31T18:24:18.428Z,61.20
2023-01-31T18:26:46.806Z,61.20
2023-01-31T18:29:19.812Z,61.20
2023-01-31T18:31:48.942Z,61.10
2023-01-31T18:34:18.750Z,61.00
2023-01-31T18:36:47.037Z,61.10
2023-01-31T18:39:15.450Z,60.90
2023-01-31T18:41:43.976Z,60.90
2023-01-31T18:44:12.393Z,60.90
2023-01-31T18:46:40.893Z,60.90
2023-01-31T18:49:09.496Z,60.80
2023-01-31T18:51:39.377Z,60.90
2023-01-31T18:54:08.795Z,60.90
2023-01-31T18:56:37.326Z,60.80
2023-01-31T18:59:05.638Z,60.90
2023-01-31T19:01:34.096Z,61.00
2023-01-31T19:04:02.731Z,61.20
2023-01-31T19:06:36.329Z,61.20
2023-01-31T19:09:08.549Z,61.20
2023-01-31T19:11:37.158Z,61.20
2023-01-31T19:14:07.553Z,61.30
2023-01-31T19:16:40.465Z,61.20
2023-01-31T19:19:10.113Z,61.40
2023-01-31T19:21:39.670Z,61.10
2023-01-31T19:24:14.115Z,61.20
2023-01-31T19:26:43.206Z,61.30
2023-01-31T19:29:15.783Z,61.40
2023-01-31T19:31:45.049Z,61.40
2023-01-31T19:34:13.561Z,61.40
2023-01-31T19:36:44.700Z,61.30
2023-01-31T19:39:14.847Z,61.40
2023-01-31T19:41:43.482Z,61.60
2023-01-31T19:44:12.228Z,61.40
2023-01-31T19:46:40.637Z,61.30
2023-01-31T19:49:08.928Z,61.30
2023-01-31T19:51:38.098Z,61.20
2023-01-31T19:54:06.930Z,61.20
2023-01-31T19:56:38.351Z,61.20
2023-01-31T19:59:07.063Z,61.20
2023-01-31T20:01:36.152Z,61.30
2023-01-31T20:04:04.903Z,61.20
2023-01-31T20:06:35.655Z,61.20
2023-01-31T20:09:05.994Z,61.30
2023-01-31T20:11:36.850Z,61.30
2023-01-31T20:14:06.528Z,61.40
2023-01-31T20:16:35.445Z,61.30
2023-01-31T20:19:03.861Z,61.20
2023-01-31T20:21:32.179Z,61.20
2023-01-31T20:24:00.893Z,61.20
2023-01-31T20:26:29.913Z,61.20
2023-01-31T20:28:59.851Z,61.20
2023-01-31T20:31:28.291Z,61.20
2023-01-31T20:33:56.678Z,61.10
2023-01-31T20:36:25.009Z,61.00
2023-01-31T20:38:53.932Z,61.10
2023-01-31T20:41:22.862Z,61.10
2023-01-31T20:43:51.534Z,60.90
2023-01-31T20:46:21.914Z,60.90
2023-01-31T20:48:50.489Z,60.90
2023-01-31T20:51:18.849Z,60.90
2023-01-31T20:53:47.222Z,60.90
2023-01-31T20:56:15.550Z,60.90
2023-01-31T20:58:44.847Z,60.80
2023-01-31T21:01:13.672Z,60.90
2023-01-31T21:03:43.418Z,60.80
2023-01-31T21:06:11.844Z,60.70
2023-01-31T21:08:41.215Z,60.70
2023-01-31T21:11:11.990Z,60.70
2023-01-31T21:13:43.366Z,60.70
2023-01-31T21:16:15.454Z,60.60
2023-01-31T21:18:45.423Z,60.60
2023-01-31T21:21:22.753Z,60.60
2023-01-31T21:23:53.014Z,60.70
2023-01-31T21:26:24.892Z,60.70
2023-01-31T21:28:54.082Z,60.80
2023-01-31T21:31:22.808Z,60.70
2023-01-31T21:33:53.758Z,60.70
2023-01-31T21:36:26.607Z,60.70
2023-01-31T21:38:55.140Z,60.70
2023-01-31T21:41:41.003Z,60.70
2023-01-31T21:44:09.442Z,60.50
2023-01-31T21:46:37.947Z,60.50
2023-01-31T21:49:08.472Z,60.40
2023-01-31T21:51:36.831Z,60.40
2023-01-31T21:54:05.605Z,60.40
2023-01-31T21:56:34.024Z,60.30
2023-01-31T21:59:02.301Z,60.30
2023-01-31T22:01:33.762Z,60.30
2023-01-31T22:04:02.946Z,60.30
2023-01-31T22:06:38.831Z,60.20
2023-01-31T22:09:09.173Z,60.20
2023-01-31T22:11:38.249Z,60.40
2023-01-31T22:14:09.182Z,60.80
2023-01-31T22:16:38.634Z,60.20
2023-01-31T22:19:07.039Z,60.10
2023-01-31T22:21:39.643Z,60.10
2023-01-31T22:24:11.529Z,60.00
2023-01-31T22:26:42.966Z,60.00
2023-01-31T22:29:15.264Z,60.00
2023-01-31T22:31:45.322Z,60.00
2023-01-31T22:34:16.017Z,60.10
2023-01-31T22:36:45.667Z,60.00
2023-01-31T22:39:16.030Z,59.90
2023-01-31T22:41:45.123Z,60.00
2023-01-31T22:44:13.703Z,60.00
2023-01-31T22:46:42.356Z,60.10
2023-01-31T22:49:10.790Z,60.00
2023-01-31T22:51:39.136Z,60.00
2023-01-31T22:54:09.246Z,60.00
2023-01-31T22:56:37.571Z,60.00
2023-01-31T22:59:07.112Z,60.00
2023-01-31T23:01:37.743Z,59.90
2023-01-31T23:04:08.498Z,59.90
2023-01-31T23:06:37.695Z,59.90
2023-01-31T23:09:07.839Z,60.00
2023-01-31T23:11:36.189Z,60.00
2023-01-31T23:14:04.454Z,59.90
2023-01-31T23:16:50.526Z,59.90
2023-01-31T23:19:18.758Z,59.90
2023-01-31T23:21:48.996Z,59.90
2023-01-31T23:24:19.061Z,59.90
2023-01-31T23:26:47.642Z,59.90
2023-01-31T23:29:16.034Z,59.80
2023-01-31T23:31:44.480Z,59.90
2023-01-31T23:34:12.949Z,59.90
2023-01-31T23:36:41.233Z,59.80
2023-01-31T23:39:10.643Z,59.90
2023-01-31T23:41:40.348Z,59.90
2023-01-31T23:44:08.857Z,59.80
2023-01-31T23:46:37.345Z,59.80
2023-01-31T23:49:06.372Z,59.70
2023-01-31T23:51:34.677Z,59.80
2023-01-31T23:54:02.968Z,59.70
2023-01-31T23:56:31.462Z,59.70
2023-01-31T23:59:01.165Z,59.70
